createdAt,value
2023-03-24T00:02:20.254Z,27.20
2023-03-24T00:04:49.797Z,31.90
2023-03-24T00:07:25.232Z,28.70
2023-03-24T00:09:54.025Z,30.20
2023-03-24T00:12:22.257Z,28.70
2023-03-24T00:14:56.390Z,30.20
2023-03-24T00:17:25.650Z,30.90
2023-03-24T00:19:56.177Z,30.00
2023-03-24T00:22:36.378Z,27.20
2023-03-24T00:25:07.025Z,28.60
2023-03-24T00:27:36.985Z,33.50
2023-03-24T00:30:07.435Z,35.00
2023-03-24T00:32:43.198Z,30.00
2023-03-24T00:35:16.511Z,27.20
2023-03-24T00:37:47.037Z,27.80
2023-03-24T00:40:18.152Z,27.00
2023-03-24T00:42:49.460Z,31.00
2023-03-24T00:45:23.555Z,32.00
2023-03-24T00:47:58.103Z,27.70
2023-03-24T00:50:27.548Z,27.10
2023-03-24T00:52:58.542Z,29.50
2023-03-24T00:55:28.888Z,29.30
2023-03-24T00:58:01.176Z,35.30
2023-03-24T01:00:29.916Z,34.50
2023-03-24T01:02:58.850Z,30.60
2023-03-24T01:05:30.053Z,28.70
2023-03-24T01:08:04.193Z,28.00
2023-03-24T01:10:37.107Z,27.50
2023-03-24T01:13:09.100Z,26.60
2023-03-24T01:15:38.536Z,30.80
2023-03-24T01:18:09.859Z,30.70
2023-03-24T01:20:40.846Z,30.60
2023-03-24T01:23:09.116Z,29.50
2023-03-24T01:26:30.605Z,28.80
2023-03-24T01:29:24.283Z,33.60
2023-03-24T01:31:52.825Z,32.50
2023-03-24T01:34:21.187Z,30.50
2023-03-24T01:36:49.485Z,27.80
2023-03-24T01:39:17.988Z,35.80
2023-03-24T01:41:46.250Z,31.30
2023-03-24T01:44:34.944Z,30.30
2023-03-24T01:47:06.610Z,30.30
2023-03-24T01:49:37.699Z,29.70
2023-03-24T01:52:09.672Z,31.90
2023-03-24T01:54:43.395Z,30.60
2023-03-24T01:57:17.994Z,29.50
2023-03-24T01:59:48.498Z,31.20
2023-03-24T02:02:23.642Z,27.90
2023-03-24T02:05:02.103Z,34.50
2023-03-24T02:08:20.678Z,30.80
2023-03-24T02:10:49.873Z,27.60
2023-03-24T02:13:18.185Z,27.10
2023-03-24T02:16:04.159Z,26.60
2023-03-24T02:18:47.120Z,29.30
2023-03-24T02:21:40.492Z,27.90
2023-03-24T02:24:18.149Z,30.40
2023-03-24T02:27:04.895Z,30.30
2023-03-24T02:29:49.128Z,29.10
2023-03-24T02:32:32.117Z,33.90
2023-03-24T02:35:33.109Z,24.40
2023-03-24T02:38:44.122Z,26.70
2023-03-24T02:41:20.803Z,25.10
2023-03-24T02:44:20.243Z,28.00
2023-03-24T02:46:57.728Z,33.10
2023-03-24T02:49:28.990Z,35.20
2023-03-24T02:52:07.583Z,29.30
2023-03-24T02:54:56.696Z,26.70
2023-03-24T02:57:45.894Z,28.30
2023-03-24T03:00:59.797Z,28.10
2023-03-24T03:03:43.257Z,31.60
2023-03-24T03:06:15.640Z,27.20
2023-03-24T03:08:47.924Z,27.90
2023-03-24T03:11:16.644Z,27.60
2023-03-24T03:13:52.766Z,31.00
2023-03-24T03:16:34.740Z,31.10
2023-03-24T03:19:18.215Z,26.50
2023-03-24T03:21:48.426Z,31.50
2023-03-24T03:24:16.645Z,28.50
2023-03-24T03:26:46.248Z,30.80
2023-03-24T03:29:17.354Z,34.50
2023-03-24T03:31:51.130Z,31.80
2023-03-24T03:34:43.161Z,30.10
2023-03-24T03:37:24.476Z,27.70
2023-03-24T03:40:00.218Z,28.20
2023-03-24T03:42:28.977Z,24.50
2023-03-24T03:44:57.673Z,25.30
2023-03-24T03:47:26.910Z,32.50
2023-03-24T03:49:55.149Z,26.50
2023-03-24T03:52:24.176Z,29.80
2023-03-24T03:54:52.986Z,31.40
2023-03-24T03:57:21.142Z,30.30
2023-03-24T04:00:15.863Z,27.20
2023-03-24T04:03:17.640Z,29.40
2023-03-24T04:06:09.560Z,28.60
2023-03-24T04:08:44.569Z,29.60
2023-03-24T04:11:46.723Z,28.30
2023-03-24T04:14:54.118Z,32.50
2023-03-24T04:17:54.953Z,29.40
2023-03-24T04:20:50.860Z,32.40
2023-03-24T04:23:30.447Z,31.10
2023-03-24T04:26:17.430Z,30.90
2023-03-24T04:29:14.105Z,30.80
2023-03-24T04:32:03.894Z,29.30
2023-03-24T04:34:33.406Z,32.20
2023-03-24T04:37:12.738Z,29.30
2023-03-24T04:40:11.169Z,32.70
2023-03-24T04:42:45.656Z,25.30
2023-03-24T04:45:14.132Z,28.90
2023-03-24T04:47:47.407Z,29.70
2023-03-24T04:50:31.241Z,32.40
2023-03-24T04:53:01.067Z,28.80
2023-03-24T04:55:33.119Z,24.90
2023-03-24T04:58:04.451Z,25.60
2023-03-24T05:00:33.201Z,28.20
2023-03-24T05:03:01.889Z,32.30
2023-03-24T05:05:31.704Z,28.20
2023-03-24T05:08:00.540Z,31.30
2023-03-24T05:10:30.451Z,26.30
2023-03-24T05:12:59.238Z,30.20
2023-03-24T05:15:59.560Z,28.00
2023-03-24T05:18:37.539Z,30.00
2023-03-24T05:21:07.068Z,30.30
2023-03-24T05:23:36.184Z,28.30
2023-03-24T05:26:08.345Z,42.80
2023-03-24T05:28:44.448Z,34.70
2023-03-24T05:31:13.192Z,28.40
2023-03-24T05:33:48.956Z,29.90
2023-03-24T05:36:20.167Z,33.70
2023-03-24T05:39:00.053Z,26.60
2023-03-24T05:41:38.761Z,28.90
2023-03-24T05:44:06.842Z,30.90
2023-03-24T05:46:35.751Z,30.20
2023-03-24T05:49:05.517Z,33.80
2023-03-24T05:51:39.943Z,33.10
2023-03-24T05:54:08.686Z,33.20
2023-03-24T05:56:49.304Z,30.50
2023-03-24T05:59:29.579Z,35.80
2023-03-24T06:02:22.110Z,31.80
2023-03-24T06:04:57.893Z,28.70
2023-03-24T06:07:27.024Z,30.70
2023-03-24T06:10:03.222Z,29.10
2023-03-24T06:12:38.815Z,31.50
2023-03-24T06:15:08.426Z,25.50
2023-03-24T06:17:45.933Z,28.60
2023-03-24T06:20:24.341Z,29.30
2023-03-24T06:23:03.328Z,30.80
2023-03-24T06:25:44.981Z,24.30
2023-03-24T06:28:18.028Z,27.70
2023-03-24T06:30:49.780Z,24.00
2023-03-24T06:33:26.021Z,26.10
2023-03-24T06:35:55.170Z,25.30
2023-03-24T06:38:24.186Z,28.10
2023-03-24T06:40:52.612Z,23.20
2023-03-24T06:43:20.766Z,28.70
2023-03-24T06:45:53.182Z,23.90
2023-03-24T06:48:23.980Z,26.50
2023-03-24T06:50:56.121Z,25.20
2023-03-24T06:53:26.075Z,26.70
2023-03-24T06:55:54.172Z,27.90
2023-03-24T06:58:24.087Z,26.80
2023-03-24T07:01:15.280Z,28.30
2023-03-24T07:03:57.610Z,27.00
2023-03-24T07:06:50.933Z,36.50
2023-03-24T07:09:32.797Z,31.00
2023-03-24T07:12:03.714Z,35.10
2023-03-24T07:14:32.182Z,33.40
2023-03-24T07:17:02.580Z,32.40
2023-03-24T07:19:53.648Z,34.30
2023-03-24T07:23:01.761Z,35.70
2023-03-24T07:25:50.039Z,39.20
2023-03-24T07:28:38.908Z,34.20
2023-03-24T07:31:11.036Z,34.50
2023-03-24T07:33:40.724Z,33.20
2023-03-24T07:36:09.470Z,31.40
2023-03-24T07:38:41.637Z,33.40
2023-03-24T07:41:12.554Z,38.90
2023-03-24T07:43:43.106Z,45.30
2023-03-24T07:46:29.080Z,38.60
2023-03-24T07:49:03.177Z,41.60
2023-03-24T07:51:39.767Z,46.90
2023-03-24T07:54:26.250Z,44.60
2023-03-24T07:56:55.900Z,40.10
2023-03-24T07:59:26.721Z,45.10
2023-03-24T08:02:29.479Z,36.00
2023-03-24T08:05:29.746Z,29.40
2023-03-24T08:08:19.985Z,30.80
2023-03-24T08:11:08.219Z,29.50
2023-03-24T08:13:36.493Z,31.20
2023-03-24T08:16:05.145Z,29.00
2023-03-24T08:18:41.061Z,27.30
2023-03-24T08:21:21.915Z,28.70
2023-03-24T08:23:50.436Z,27.20
2023-03-24T08:26:19.597Z,28.10
2023-03-24T08:28:47.812Z,28.60
2023-03-24T08:31:16.209Z,34.40
2023-03-24T08:33:47.229Z,24.70
2023-03-24T08:36:16.884Z,27.50
2023-03-24T08:38:45.075Z,26.70
2023-03-24T08:41:13.668Z,27.50
2023-03-24T08:43:41.824Z,25.30
2023-03-24T08:46:14.195Z,24.80
2023-03-24T08:48:46.233Z,23.90
2023-03-24T08:51:26.625Z,27.20
2023-03-24T08:53:55.463Z,24.40
2023-03-24T08:56:23.714Z,25.80
2023-03-24T08:58:55.394Z,25.30
2023-03-24T09:01:35.778Z,20.50
2023-03-24T09:04:04.746Z,21.90
2023-03-24T09:06:33.273Z,26.40
2023-03-24T09:09:01.605Z,21.30
2023-03-24T09:11:38.580Z,25.20
2023-03-24T09:14:07.406Z,24.40
2023-03-24T09:16:35.612Z,29.00
2023-03-24T09:19:05.960Z,21.80
2023-03-24T09:21:36.225Z,28.60
2023-03-24T09:24:04.654Z,24.20
2023-03-24T09:26:34.245Z,25.40
2023-03-24T09:29:03.018Z,21.40
2023-03-24T09:31:34.181Z,31.40
2023-03-24T09:36:50.082Z,79.30
2023-03-24T09:39:20.035Z,33.50
2023-03-24T09:41:56.355Z,24.70
2023-03-24T09:44:39.133Z,30.50
2023-03-24T09:47:29.745Z,27.50
2023-03-24T09:50:03.297Z,20.10
2023-03-24T09:52:36.816Z,23.00
2023-03-24T09:55:06.392Z,21.40
2023-03-24T09:57:41.974Z,20.20
2023-03-24T10:00:18.322Z,23.50
2023-03-24T10:02:49.740Z,20.10
2023-03-24T10:05:39.533Z,18.20
2023-03-24T10:08:35.692Z,21.30
2023-03-24T10:11:09.794Z,20.70
2023-03-24T10:14:13.634Z,20.00
2023-03-24T10:16:49.739Z,21.10
2023-03-24T10:19:43.035Z,18.00
2023-03-24T10:22:22.054Z,19.50
2023-03-24T10:24:59.040Z,20.70
2023-03-24T10:27:32.896Z,21.50
2023-03-24T10:30:09.105Z,17.70
2023-03-24T10:32:38.968Z,21.60
2023-03-24T10:35:10.162Z,20.30
2023-03-24T10:37:38.544Z,21.40
2023-03-24T10:40:19.508Z,21.10
2023-03-24T10:42:49.891Z,13.30
2023-03-24T10:45:39.715Z,13.60
2023-03-24T10:48:09.736Z,17.20
2023-03-24T10:50:40.799Z,12.00
2023-03-24T10:53:20.647Z,15.20
2023-03-24T10:55:50.937Z,13.70
2023-03-24T10:58:37.837Z,12.60
2023-03-24T11:01:21.674Z,12.80
2023-03-24T11:03:50.754Z,15.10
2023-03-24T11:06:21.919Z,17.60
2023-03-24T11:09:10.511Z,15.70
2023-03-24T11:11:39.580Z,14.00
2023-03-24T11:14:26.580Z,14.90
2023-03-24T11:17:12.378Z,11.80
2023-03-24T11:19:57.113Z,11.50
2023-03-24T11:22:25.449Z,14.60
2023-03-24T11:24:56.193Z,12.80
2023-03-24T11:27:24.359Z,16.50
2023-03-24T11:29:56.372Z,15.60
2023-03-24T11:32:27.378Z,12.60
2023-03-24T11:35:17.912Z,10.00
2023-03-24T11:37:46.353Z,13.50
2023-03-24T11:40:25.103Z,15.00
2023-03-24T11:43:00.824Z,9.40
2023-03-24T11:45:43.261Z,12.10
2023-03-24T11:48:34.245Z,9.30
2023-03-24T11:51:02.409Z,10.10
2023-03-24T11:53:42.775Z,10.70
2023-03-24T11:56:36.359Z,13.80
2023-03-24T11:59:14.809Z,7.20
2023-03-24T12:01:51.304Z,16.70
2023-03-24T12:04:22.248Z,14.90
2023-03-24T12:06:51.188Z,11.00
2023-03-24T12:09:30.625Z,11.00
2023-03-24T12:12:34.132Z,8.10
2023-03-24T12:15:28.535Z,9.20
2023-03-24T12:18:04.111Z,8.80
2023-03-24T12:20:41.195Z,10.90
2023-03-24T12:23:28.394Z,9.30
2023-03-24T12:26:14.458Z,8.20
2023-03-24T12:29:00.999Z,7.00
2023-03-24T12:31:38.341Z,7.90
2023-03-24T12:34:42.690Z,8.80
2023-03-24T12:37:23.568Z,6.50
2023-03-24T12:39:56.041Z,8.70
2023-03-24T12:42:24.255Z,10.40
2023-03-24T12:45:27.360Z,6.30
2023-03-24T12:48:04.533Z,9.10
2023-03-24T12:50:49.565Z,5.60
2023-03-24T12:53:27.665Z,12.30
2023-03-24T12:56:03.272Z,11.00
2023-03-24T12:58:50.345Z,12.50
2023-03-24T13:01:32.246Z,10.50
2023-03-24T13:04:23.765Z,10.60
2023-03-24T13:06:56.723Z,8.20
2023-03-24T13:09:27.774Z,33.80
2023-03-24T13:12:02.139Z,11.30
2023-03-24T13:14:57.441Z,10.00
2023-03-24T13:17:31.402Z,9.10
2023-03-24T13:19:59.604Z,10.80
2023-03-24T13:22:27.956Z,7.60
2023-03-24T13:25:01.302Z,10.00
2023-03-24T13:27:34.176Z,10.50
2023-03-24T13:30:27.357Z,9.40
2023-03-24T13:33:01.531Z,5.80
2023-03-24T13:36:09.860Z,8.30
2023-03-24T13:38:50.560Z,8.80
2023-03-24T13:41:20.265Z,7.80
2023-03-24T13:43:52.773Z,12.30
2023-03-24T13:46:21.153Z,8.40
2023-03-24T13:48:55.435Z,8.40
2023-03-24T13:51:31.735Z,6.30
2023-03-24T13:54:06.200Z,7.20
2023-03-24T13:56:36.149Z,12.00
2023-03-24T13:59:07.895Z,9.50
2023-03-24T14:04:22.268Z,7.70
2023-03-24T14:06:55.487Z,6.40
2023-03-24T14:09:29.506Z,10.40
2023-03-24T14:12:08.108Z,9.20
2023-03-24T14:14:38.259Z,7.50
2023-03-24T14:17:06.380Z,9.30
2023-03-24T14:19:42.088Z,9.30
2023-03-24T14:22:42.495Z,8.80
2023-03-24T14:25:16.827Z,8.10
2023-03-24T14:27:49.028Z,8.10
2023-03-24T14:30:19.806Z,10.30
2023-03-24T14:32:59.021Z,8.60
2023-03-24T14:35:43.656Z,8.80
2023-03-24T14:38:15.841Z,11.00
2023-03-24T14:40:49.730Z,13.10
2023-03-24T14:43:53.664Z,14.50
2023-03-24T14:46:22.784Z,14.90
2023-03-24T14:49:12.673Z,15.80
2023-03-24T14:51:51.035Z,14.10
2023-03-24T14:55:05.920Z,14.80
2023-03-24T14:57:42.151Z,11.50
2023-03-24T15:00:17.968Z,10.90
2023-03-24T15:02:48.178Z,14.50
2023-03-24T15:05:31.607Z,10.20
2023-03-24T15:08:12.215Z,12.90
2023-03-24T15:10:55.808Z,14.40
2023-03-24T15:13:41.350Z,14.10
2023-03-24T15:16:12.671Z,10.10
2023-03-24T15:21:38.577Z,10.20
2023-03-24T15:24:22.494Z,11.40
2023-03-24T15:26:55.805Z,9.90
2023-03-24T15:29:27.973Z,10.80
2023-03-24T15:34:28.519Z,12.90
2023-03-24T15:36:58.512Z,11.90
2023-03-24T15:39:29.487Z,11.00
2023-03-24T15:41:58.066Z,12.60
2023-03-24T15:44:28.324Z,15.60
2023-03-24T15:46:57.978Z,11.60
2023-03-24T15:49:31.472Z,13.90
2023-03-24T15:52:02.420Z,12.40
2023-03-24T15:54:36.426Z,11.40
2023-03-24T15:57:23.929Z,12.40
2023-03-24T16:00:16.741Z,15.70
2023-03-24T16:02:51.631Z,13.50
2023-03-24T16:05:22.798Z,18.60
2023-03-24T16:08:06.011Z,26.30
2023-03-24T16:10:42.929Z,22.70
2023-03-24T16:13:21.507Z,30.10
2023-03-24T16:16:00.833Z,27.20
2023-03-24T16:18:32.397Z,21.20
2023-03-24T16:21:14.371Z,23.40
2023-03-24T16:23:44.575Z,39.90
2023-03-24T16:26:17.771Z,79.40
2023-03-24T16:28:49.485Z,164.70
2023-03-24T16:31:22.907Z,129.60
2023-03-24T16:33:52.128Z,76.50
2023-03-24T16:36:22.491Z,87.80
2023-03-24T16:38:51.316Z,96.60
2023-03-24T16:41:19.613Z,86.40
2023-03-24T16:43:47.749Z,83.10
2023-03-24T16:46:16.871Z,52.50
2023-03-24T16:48:49.745Z,46.50
2023-03-24T16:51:17.977Z,39.10
2023-03-24T16:53:48.108Z,33.30
2023-03-24T16:56:18.045Z,37.60
2023-03-24T16:58:48.142Z,31.10
2023-03-24T17:04:02.605Z,43.70
2023-03-24T17:06:32.625Z,39.60
2023-03-24T17:09:01.605Z,41.20
2023-03-24T17:11:32.304Z,47.00
2023-03-24T17:14:16.730Z,63.50
2023-03-24T17:16:52.872Z,51.40
2023-03-24T17:22:03.912Z,42.20
2023-03-24T17:24:41.782Z,32.10
2023-03-24T17:27:21.929Z,36.80
2023-03-24T17:30:03.058Z,49.70
2023-03-24T17:32:34.677Z,39.20
2023-03-24T17:35:07.215Z,48.30
2023-03-24T17:37:35.465Z,107.60
2023-03-24T17:40:09.817Z,215.10
2023-03-24T17:42:39.158Z,225.80
2023-03-24T17:45:08.788Z,172.10
2023-03-24T17:47:38.572Z,116.80
2023-03-24T17:50:30.855Z,80.60
2023-03-24T17:54:18.818Z,43.30
2023-03-24T17:56:21.389Z,42.30
2023-03-24T17:58:54.933Z,40.20
2023-03-24T18:01:23.874Z,34.20
2023-03-24T18:03:52.389Z,30.10
2023-03-24T18:06:21.768Z,33.30
2023-03-24T18:08:51.394Z,35.60
2023-03-24T18:11:19.585Z,29.30
2023-03-24T18:13:47.764Z,32.30
2023-03-24T18:16:21.781Z,33.40
2023-03-24T18:18:51.099Z,44.30
2023-03-24T18:21:26.286Z,46.50
2023-03-24T18:23:54.534Z,57.60
2023-03-24T18:26:22.920Z,75.00
2023-03-24T18:28:51.594Z,89.70
2023-03-24T18:31:21.045Z,76.90
2023-03-24T18:33:50.282Z,65.80
2023-03-24T18:36:26.381Z,44.80
2023-03-24T18:38:58.538Z,33.70
2023-03-24T18:41:28.483Z,35.90
2023-03-24T18:43:58.397Z,29.70
2023-03-24T18:46:28.446Z,33.40
2023-03-24T18:48:56.930Z,32.20
2023-03-24T18:51:25.807Z,39.20
2023-03-24T18:53:55.547Z,31.90
2023-03-24T18:56:23.687Z,36.10
2023-03-24T18:58:52.587Z,32.00
2023-03-24T19:01:26.271Z,30.80
2023-03-24T19:03:54.621Z,29.40
2023-03-24T19:06:26.340Z,38.30
2023-03-24T19:08:54.829Z,26.40
2023-03-24T19:11:23.218Z,25.00
2023-03-24T19:13:58.102Z,31.60
2023-03-24T19:16:26.525Z,25.30
2023-03-24T19:18:57.918Z,29.90
2023-03-24T19:21:27.831Z,32.90
2023-03-24T19:23:57.186Z,34.50
2023-03-24T19:26:26.156Z,29.60
2023-03-24T19:28:57.851Z,27.80
2023-03-24T19:31:26.105Z,26.60
2023-03-24T19:33:57.237Z,27.90
2023-03-24T19:36:28.926Z,25.10
2023-03-24T19:41:26.569Z,31.50
2023-03-24T19:43:58.797Z,31.40
2023-03-24T19:46:46.814Z,29.40
2023-03-24T19:49:17.246Z,26.60
2023-03-24T19:51:45.445Z,27.60
2023-03-24T19:54:13.768Z,25.40
2023-03-24T19:56:42.018Z,22.80
2023-03-24T19:59:11.591Z,38.90
2023-03-24T20:01:39.852Z,32.90
2023-03-24T20:04:08.233Z,33.00
2023-03-24T20:06:50.721Z,40.80
2023-03-24T20:09:22.860Z,41.20
2023-03-24T20:11:53.323Z,42.80
2023-03-24T20:14:35.078Z,34.30
2023-03-24T20:17:03.337Z,31.60
2023-03-24T20:19:37.470Z,39.40
2023-03-24T20:22:05.636Z,35.00
2023-03-24T20:24:34.557Z,36.60
2023-03-24T20:27:07.789Z,39.20
2023-03-24T20:29:39.457Z,33.40
2023-03-24T20:32:10.269Z,40.30
2023-03-24T20:34:40.860Z,41.80
2023-03-24T20:37:09.093Z,44.40
2023-03-24T20:39:37.976Z,45.70
2023-03-24T20:42:06.209Z,40.00
2023-03-24T20:44:35.977Z,42.00
2023-03-24T20:47:05.564Z,52.30
2023-03-24T20:49:34.124Z,47.10
2023-03-24T20:52:29.405Z,53.00
2023-03-24T20:55:17.944Z,38.40
2023-03-24T20:57:48.440Z,37.60
2023-03-24T21:00:20.460Z,38.60
2023-03-24T21:05:18.007Z,31.90
2023-03-24T21:07:46.870Z,29.90
2023-03-24T21:10:15.762Z,33.20
2023-03-24T21:12:52.700Z,34.60
2023-03-24T21:15:25.111Z,34.70
2023-03-24T21:17:54.157Z,31.80
2023-03-24T21:20:22.684Z,25.50
2023-03-24T21:22:53.723Z,26.20
2023-03-24T21:25:31.610Z,26.60
2023-03-24T21:28:00.155Z,27.40
2023-03-24T21:30:28.522Z,27.80
2023-03-24T21:32:59.050Z,29.30
2023-03-24T21:35:28.259Z,24.00
2023-03-24T21:37:56.372Z,25.10
2023-03-24T21:40:25.158Z,22.00
2023-03-24T21:42:56.412Z,26.00
2023-03-24T21:45:24.537Z,25.20
2023-03-24T21:47:55.454Z,28.60
2023-03-24T21:50:24.002Z,25.20
2023-03-24T21:52:53.224Z,24.50
2023-03-24T21:55:22.539Z,26.20
2023-03-24T21:57:51.991Z,24.10
2023-03-24T22:00:30.021Z,24.90
2023-03-24T22:02:58.496Z,20.90
2023-03-24T22:05:29.254Z,23.50
2023-03-24T22:08:02.626Z,21.50
2023-03-24T22:11:04.339Z,24.50
2023-03-24T22:13:35.558Z,18.00
2023-03-24T22:16:06.126Z,17.80
2023-03-24T22:18:34.578Z,20.20
2023-03-24T22:21:10.810Z,19.80
2023-03-24T22:23:42.630Z,21.60
2023-03-24T22:26:13.553Z,29.30
2023-03-24T22:28:42.586Z,24.80
2023-03-24T22:31:13.057Z,32.70
2023-03-24T22:33:41.490Z,40.90
2023-03-24T22:36:10.423Z,31.80
2023-03-24T22:38:39.475Z,40.20
2023-03-24T22:41:11.596Z,41.60
2023-03-24T22:43:41.967Z,39.50
2023-03-24T22:46:10.846Z,43.20
2023-03-24T22:48:40.344Z,39.80
2023-03-24T22:51:09.622Z,38.60
2023-03-24T22:53:42.702Z,37.80
2023-03-24T22:56:11.659Z,36.10
2023-03-24T22:58:40.332Z,34.70
2023-03-24T23:01:10.659Z,36.80
2023-03-24T23:03:39.106Z,33.10
2023-03-24T23:09:25.512Z,30.20
2023-03-24T23:11:55.060Z,39.00
2023-03-24T23:14:46.658Z,39.00
2023-03-24T23:17:16.053Z,31.90
2023-03-24T23:20:37.826Z,36.50
2023-03-24T23:26:26.576Z,29.60
2023-03-24T23:28:58.223Z,31.80
2023-03-24T23:31:27.138Z,34.20
2023-03-24T23:33:57.270Z,31.10
2023-03-24T23:36:30.138Z,37.70
2023-03-24T23:38:59.931Z,29.10
2023-03-24T23:41:28.140Z,33.20
2023-03-24T23:44:38.803Z,33.50
2023-03-24T23:47:18.453Z,34.80
2023-03-24T23:49:47.067Z,33.90
2023-03-24T23:52:15.527Z,30.70
2023-03-24T23:54:43.688Z,31.80
2023-03-24T23:57:14.655Z,37.10
2023-03-24T23:59:42.998Z,34.50
